Airfield :
LOGIN :

Register | Disclaimer

   EN    FR    IT 

 










Legend :    VFR   Marginal VFR   IFR   Intensive IFR   Very Intensive IFR
Visi :
Ceiling :
>= 8 km
>= 3000ft
5 to 8 km
1000 to 3000 ft
1500m to 5 km
500 to 1000 ft
800 to 1500m
200 to 500 ft
< 800m
< 200 ft
Symbols :   Thunderstorms  Fog  Heavy snow  Heavy precipitations  Wind > 20 kt
SIGMETs :     Misc.  Thunderstorms  Icing  Turbulence  Mountain Waves  Volcanic Ashes






- Airport Elevation : 38 ft
- IATA code : BOH


EGHH - Bournemouth

CURRENT METAR :
  • 230750Z 20007KT 9999 SCT016 BKN042 14/12 Q1007

EXPIRED METARs :
  • 230720Z 21007KT 9999 SCT018 SCT032 13/12 Q1007
  • 230650Z 21005KT 9999 FEW018 SCT033 13/11 Q1007
  • 230620Z 20006KT 9999 FEW015 13/11 Q1007
  • 230550Z 21005KT 9999 FEW015 13/11 Q1007
  • 230520Z 23006KT 9999 FEW028 13/11 Q1007

TAF AMD TAF EGHH
Valid from the 23 at 06:00 until the 23 at 15:00 UTC


230554Z 2306/2315 24008KT 9999 FEW020
PROB30
TEMPO 2306/2309 4000 SHRA BKN012
TEMPO 2309/2315 6000 RA BKN012
ATIS : +44 1202 364 151
Met : +44 1202 364 158 (TAF)



MET'MAP, your aeronautical weather chart ! - Copyright ORBIFLY December 2007 - Disclaimer

ORBIFLY MET'MAP TEAM :

Programming & Development : Alexandra Zaïnal
Concept & original design : Baudouin d'Aumeries
Assistance for programming : Marc-Olivier Méhu
Technical & hardware support : Manuel Goepfert

Contact : metmap@orbifly.com




SOURCES & CREDITS :

   NOAA